sensor_id;sensor_type;location;lat;lon;timestamp;P1;durP1;ratioP1;P2;durP2;ratioP2
15526;SDS011;7865;50.918;4.510;2023-08-06T00:02:37;4.72;;;1.55;;
15526;SDS011;7865;50.918;4.510;2023-08-06T00:07:38;2.30;;;1.30;;
15526;SDS011;7865;50.918;4.510;2023-08-06T00:12:40;4.50;;;1.70;;
15526;SDS011;7865;50.918;4.510;2023-08-06T00:17:41;7.75;;;1.92;;
15526;SDS011;7865;50.918;4.510;2023-08-06T00:22:44;8.95;;;1.80;;
15526;SDS011;7865;50.918;4.510;2023-08-06T00:27:45;6.53;;;2.58;;
15526;SDS011;7865;50.918;4.510;2023-08-06T00:32:47;3.93;;;2.20;;
15526;SDS011;7865;50.918;4.510;2023-08-06T00:37:48;6.60;;;2.33;;
15526;SDS011;7865;50.918;4.510;2023-08-06T00:42:49;5.57;;;2.50;;
15526;SDS011;7865;50.918;4.510;2023-08-06T00:47:51;4.20;;;2.63;;
15526;SDS011;7865;50.918;4.510;2023-08-06T00:52:53;6.60;;;3.58;;
15526;SDS011;7865;50.918;4.510;2023-08-06T00:57:54;7.60;;;4.10;;
15526;SDS011;7865;50.918;4.510;2023-08-06T01:02:57;9.02;;;4.22;;
15526;SDS011;7865;50.918;4.510;2023-08-06T01:13:28;14.20;;;5.38;;
15526;SDS011;7865;50.918;4.510;2023-08-06T01:18:37;16.83;;;6.75;;
15526;SDS011;7865;50.918;4.510;2023-08-06T01:23:40;15.52;;;6.93;;
15526;SDS011;7865;50.918;4.510;2023-08-06T01:28:44;18.08;;;7.70;;
15526;SDS011;7865;50.918;4.510;2023-08-06T01:33:53;15.52;;;7.45;;
15526;SDS011;7865;50.918;4.510;2023-08-06T01:38:57;18.40;;;7.78;;
15526;SDS011;7865;50.918;4.510;2023-08-06T01:43:59;19.58;;;8.75;;
15526;SDS011;7865;50.918;4.510;2023-08-06T01:49:01;14.77;;;8.38;;
15526;SDS011;7865;50.918;4.510;2023-08-06T01:54:02;21.83;;;9.48;;
15526;SDS011;7865;50.918;4.510;2023-08-06T01:59:04;18.17;;;9.65;;
15526;SDS011;7865;50.918;4.510;2023-08-06T02:04:06;16.55;;;9.35;;
15526;SDS011;7865;50.918;4.510;2023-08-06T02:09:07;15.98;;;10.05;;
15526;SDS011;7865;50.918;4.510;2023-08-06T02:14:10;12.85;;;8.68;;
15526;SDS011;7865;50.918;4.510;2023-08-06T02:19:11;20.60;;;9.73;;
15526;SDS011;7865;50.918;4.510;2023-08-06T02:24:13;28.10;;;9.73;;
15526;SDS011;7865;50.918;4.510;2023-08-06T02:29:14;20.38;;;10.07;;
15526;SDS011;7865;50.918;4.510;2023-08-06T02:34:17;24.92;;;9.65;;
15526;SDS011;7865;50.918;4.510;2023-08-06T02:39:20;18.35;;;10.00;;
15526;SDS011;7865;50.918;4.510;2023-08-06T02:44:22;15.85;;;8.77;;
15526;SDS011;7865;50.918;4.510;2023-08-06T02:49:24;23.35;;;9.05;;
15526;SDS011;7865;50.918;4.510;2023-08-06T02:54:25;17.00;;;8.45;;
15526;SDS011;7865;50.918;4.510;2023-08-06T02:59:26;25.27;;;9.85;;
15526;SDS011;7865;50.918;4.510;2023-08-06T03:04:51;18.52;;;8.25;;
15526;SDS011;7865;50.918;4.510;2023-08-06T03:09:55;16.17;;;8.07;;
15526;SDS011;7865;50.918;4.510;2023-08-06T03:14:56;15.73;;;8.73;;
15526;SDS011;7865;50.918;4.510;2023-08-06T03:19:58;16.27;;;9.70;;
15526;SDS011;7865;50.918;4.510;2023-08-06T03:25:00;21.98;;;11.32;;
15526;SDS011;7865;50.918;4.510;2023-08-06T03:30:02;25.02;;;12.60;;
15526;SDS011;7865;50.918;4.510;2023-08-06T03:35:05;31.20;;;15.45;;
15526;SDS011;7865;50.918;4.510;2023-08-06T03:40:07;28.38;;;14.85;;
15526;SDS011;7865;50.918;4.510;2023-08-06T03:45:09;27.35;;;15.48;;
15526;SDS011;7865;50.918;4.510;2023-08-06T03:50:12;26.58;;;14.75;;
15526;SDS011;7865;50.918;4.510;2023-08-06T03:55:14;29.00;;;14.52;;
15526;SDS011;7865;50.918;4.510;2023-08-06T04:00:15;29.25;;;12.98;;
15526;SDS011;7865;50.918;4.510;2023-08-06T04:05:21;29.10;;;13.82;;
15526;SDS011;7865;50.918;4.510;2023-08-06T04:10:23;15.00;;;9.23;;
15526;SDS011;7865;50.918;4.510;2023-08-06T04:15:24;13.27;;;7.60;;
15526;SDS011;7865;50.918;4.510;2023-08-06T04:20:26;6.22;;;4.75;;
15526;SDS011;7865;50.918;4.510;2023-08-06T04:25:27;3.72;;;1.95;;
15526;SDS011;7865;50.918;4.510;2023-08-06T04:30:29;2.47;;;1.00;;
15526;SDS011;7865;50.918;4.510;2023-08-06T04:35:30;1.67;;;0.85;;
15526;SDS011;7865;50.918;4.510;2023-08-06T04:40:35;3.90;;;1.10;;
15526;SDS011;7865;50.918;4.510;2023-08-06T04:45:37;2.97;;;2.22;;
15526;SDS011;7865;50.918;4.510;2023-08-06T04:50:42;4.38;;;2.08;;
15526;SDS011;7865;50.918;4.510;2023-08-06T04:55:44;4.95;;;2.97;;
15526;SDS011;7865;50.918;4.510;2023-08-06T05:00:46;6.43;;;3.83;;
15526;SDS011;7865;50.918;4.510;2023-08-06T05:05:47;7.73;;;3.97;;
15526;SDS011;7865;50.918;4.510;2023-08-06T05:10:48;5.50;;;4.30;;
15526;SDS011;7865;50.918;4.510;2023-08-06T05:15:50;8.73;;;5.30;;
15526;SDS011;7865;50.918;4.510;2023-08-06T05:20:52;8.23;;;4.47;;
15526;SDS011;7865;50.918;4.510;2023-08-06T05:25:53;8.13;;;4.27;;
15526;SDS011;7865;50.918;4.510;2023-08-06T05:30:54;5.13;;;3.03;;
15526;SDS011;7865;50.918;4.510;2023-08-06T05:35:56;7.87;;;3.73;;
15526;SDS011;7865;50.918;4.510;2023-08-06T05:40:57;8.32;;;3.28;;
15526;SDS011;7865;50.918;4.510;2023-08-06T05:45:58;6.97;;;3.10;;
15526;SDS011;7865;50.918;4.510;2023-08-06T05:51:00;6.40;;;3.13;;
15526;SDS011;7865;50.918;4.510;2023-08-06T05:56:01;8.23;;;3.67;;
15526;SDS011;7865;50.918;4.510;2023-08-06T06:01:02;8.60;;;3.27;;
15526;SDS011;7865;50.918;4.510;2023-08-06T06:06:04;9.93;;;3.27;;
15526;SDS011;7865;50.918;4.510;2023-08-06T06:11:05;12.55;;;3.67;;
15526;SDS011;7865;50.918;4.510;2023-08-06T06:16:06;11.38;;;3.50;;
15526;SDS011;7865;50.918;4.510;2023-08-06T06:21:09;7.15;;;3.38;;
15526;SDS011;7865;50.918;4.510;2023-08-06T06:26:12;7.93;;;3.58;;
15526;SDS011;7865;50.918;4.510;2023-08-06T06:31:13;10.50;;;3.63;;
15526;SDS011;7865;50.918;4.510;2023-08-06T06:36:15;9.27;;;3.60;;
15526;SDS011;7865;50.918;4.510;2023-08-06T06:41:16;10.05;;;4.57;;
15526;SDS011;7865;50.918;4.510;2023-08-06T06:46:17;9.73;;;4.88;;
15526;SDS011;7865;50.918;4.510;2023-08-06T06:51:19;10.30;;;4.15;;
15526;SDS011;7865;50.918;4.510;2023-08-06T06:56:20;15.52;;;5.28;;
15526;SDS011;7865;50.918;4.510;2023-08-06T07:01:22;11.20;;;4.63;;
15526;SDS011;7865;50.918;4.510;2023-08-06T07:06:23;8.57;;;3.72;;
15526;SDS011;7865;50.918;4.510;2023-08-06T07:11:25;13.32;;;4.45;;
15526;SDS011;7865;50.918;4.510;2023-08-06T07:16:26;9.63;;;3.58;;
15526;SDS011;7865;50.918;4.510;2023-08-06T07:21:28;7.00;;;3.50;;
15526;SDS011;7865;50.918;4.510;2023-08-06T07:26:29;11.80;;;3.50;;
15526;SDS011;7865;50.918;4.510;2023-08-06T07:31:30;12.70;;;3.35;;
15526;SDS011;7865;50.918;4.510;2023-08-06T07:36:31;14.20;;;2.83;;
15526;SDS011;7865;50.918;4.510;2023-08-06T07:41:33;13.25;;;2.20;;
15526;SDS011;7865;50.918;4.510;2023-08-06T07:46:36;11.88;;;2.10;;
15526;SDS011;7865;50.918;4.510;2023-08-06T07:51:37;9.98;;;1.55;;
15526;SDS011;7865;50.918;4.510;2023-08-06T07:56:39;11.88;;;2.13;;
15526;SDS011;7865;50.918;4.510;2023-08-06T08:01:40;13.27;;;2.53;;
15526;SDS011;7865;50.918;4.510;2023-08-06T08:06:42;9.73;;;2.13;;
15526;SDS011;7865;50.918;4.510;2023-08-06T08:11:44;16.35;;;3.38;;
15526;SDS011;7865;50.918;4.510;2023-08-06T08:16:46;14.00;;;2.65;;
15526;SDS011;7865;50.918;4.510;2023-08-06T08:21:47;9.60;;;2.28;;
15526;SDS011;7865;50.918;4.510;2023-08-06T08:26:49;12.38;;;2.40;;
15526;SDS011;7865;50.918;4.510;2023-08-06T08:31:54;8.88;;;1.95;;
15526;SDS011;7865;50.918;4.510;2023-08-06T08:36:56;10.73;;;1.95;;
15526;SDS011;7865;50.918;4.510;2023-08-06T08:41:57;10.38;;;2.10;;
15526;SDS011;7865;50.918;4.510;2023-08-06T08:46:59;10.55;;;2.17;;
15526;SDS011;7865;50.918;4.510;2023-08-06T08:52:01;7.20;;;1.90;;
15526;SDS011;7865;50.918;4.510;2023-08-06T08:57:04;19.20;;;2.55;;
15526;SDS011;7865;50.918;4.510;2023-08-06T09:02:05;11.15;;;2.20;;
15526;SDS011;7865;50.918;4.510;2023-08-06T09:07:10;8.82;;;2.20;;
15526;SDS011;7865;50.918;4.510;2023-08-06T09:12:16;10.55;;;2.42;;
15526;SDS011;7865;50.918;4.510;2023-08-06T09:17:17;8.30;;;2.10;;
15526;SDS011;7865;50.918;4.510;2023-08-06T09:22:20;10.75;;;2.65;;
15526;SDS011;7865;50.918;4.510;2023-08-06T09:27:22;13.73;;;2.35;;
15526;SDS011;7865;50.918;4.510;2023-08-06T09:32:23;13.85;;;2.60;;
15526;SDS011;7865;50.918;4.510;2023-08-06T09:37:25;11.60;;;2.35;;
15526;SDS011;7865;50.918;4.510;2023-08-06T09:42:36;7.88;;;1.83;;
15526;SDS011;7865;50.918;4.510;2023-08-06T09:47:38;5.93;;;2.10;;
15526;SDS011;7865;50.918;4.510;2023-08-06T09:52:39;9.13;;;2.28;;
15526;SDS011;7865;50.918;4.510;2023-08-06T09:57:42;10.35;;;2.47;;
15526;SDS011;7865;50.918;4.510;2023-08-06T10:02:44;12.18;;;3.20;;
15526;SDS011;7865;50.918;4.510;2023-08-06T10:07:46;10.88;;;3.45;;
15526;SDS011;7865;50.918;4.510;2023-08-06T10:12:49;9.82;;;2.50;;
15526;SDS011;7865;50.918;4.510;2023-08-06T10:17:52;9.07;;;2.80;;
15526;SDS011;7865;50.918;4.510;2023-08-06T10:23:01;11.07;;;2.55;;
15526;SDS011;7865;50.918;4.510;2023-08-06T10:28:12;9.45;;;2.08;;
15526;SDS011;7865;50.918;4.510;2023-08-06T10:33:19;13.93;;;2.65;;
15526;SDS011;7865;50.918;4.510;2023-08-06T10:38:22;10.15;;;2.67;;
15526;SDS011;7865;50.918;4.510;2023-08-06T10:43:34;8.25;;;2.20;;
15526;SDS011;7865;50.918;4.510;2023-08-06T10:48:39;6.43;;;1.92;;
15526;SDS011;7865;50.918;4.510;2023-08-06T10:53:43;10.02;;;2.33;;
15526;SDS011;7865;50.918;4.510;2023-08-06T10:58:46;7.53;;;1.90;;
15526;SDS011;7865;50.918;4.510;2023-08-06T11:03:48;10.07;;;2.53;;
15526;SDS011;7865;50.918;4.510;2023-08-06T11:08:54;6.43;;;2.15;;
15526;SDS011;7865;50.918;4.510;2023-08-06T11:13:56;10.65;;;2.78;;
15526;SDS011;7865;50.918;4.510;2023-08-06T11:18:57;6.03;;;2.00;;
15526;SDS011;7865;50.918;4.510;2023-08-06T11:24:00;8.55;;;2.88;;
15526;SDS011;7865;50.918;4.510;2023-08-06T11:29:05;9.63;;;2.40;;
15526;SDS011;7865;50.918;4.510;2023-08-06T11:34:06;10.27;;;2.13;;
15526;SDS011;7865;50.918;4.510;2023-08-06T11:39:08;6.88;;;2.10;;
15526;SDS011;7865;50.918;4.510;2023-08-06T11:44:10;7.75;;;2.45;;
15526;SDS011;7865;50.918;4.510;2023-08-06T11:49:14;6.82;;;2.00;;
15526;SDS011;7865;50.918;4.510;2023-08-06T11:54:15;8.10;;;2.30;;
15526;SDS011;7865;50.918;4.510;2023-08-06T11:59:17;9.32;;;2.38;;
15526;SDS011;7865;50.918;4.510;2023-08-06T12:04:21;9.52;;;2.15;;
15526;SDS011;7865;50.918;4.510;2023-08-06T12:09:22;8.35;;;2.10;;
15526;SDS011;7865;50.918;4.510;2023-08-06T12:14:24;13.60;;;2.17;;
15526;SDS011;7865;50.918;4.510;2023-08-06T12:19:25;16.20;;;2.80;;
15526;SDS011;7865;50.918;4.510;2023-08-06T12:24:27;8.77;;;2.50;;
15526;SDS011;7865;50.918;4.510;2023-08-06T12:29:32;13.30;;;2.45;;
15526;SDS011;7865;50.918;4.510;2023-08-06T12:34:34;6.68;;;2.25;;
15526;SDS011;7865;50.918;4.510;2023-08-06T12:39:53;8.98;;;2.00;;
15526;SDS011;7865;50.918;4.510;2023-08-06T12:44:54;5.22;;;1.50;;
15526;SDS011;7865;50.918;4.510;2023-08-06T12:49:56;7.80;;;1.98;;
15526;SDS011;7865;50.918;4.510;2023-08-06T12:54:57;6.25;;;2.63;;
15526;SDS011;7865;50.918;4.510;2023-08-06T12:59:58;7.93;;;2.50;;
15526;SDS011;7865;50.918;4.510;2023-08-06T13:04:59;5.22;;;1.45;;
15526;SDS011;7865;50.918;4.510;2023-08-06T13:10:04;7.15;;;2.10;;
15526;SDS011;7865;50.918;4.510;2023-08-06T13:15:06;10.35;;;1.98;;
15526;SDS011;7865;50.918;4.510;2023-08-06T13:20:08;13.73;;;2.08;;
15526;SDS011;7865;50.918;4.510;2023-08-06T13:25:09;15.43;;;2.40;;
15526;SDS011;7865;50.918;4.510;2023-08-06T13:30:11;7.68;;;2.17;;
15526;SDS011;7865;50.918;4.510;2023-08-06T13:35:13;9.20;;;2.22;;
15526;SDS011;7865;50.918;4.510;2023-08-06T13:40:14;4.43;;;1.45;;
15526;SDS011;7865;50.918;4.510;2023-08-06T13:45:16;6.07;;;1.50;;
15526;SDS011;7865;50.918;4.510;2023-08-06T13:50:18;11.50;;;2.60;;
15526;SDS011;7865;50.918;4.510;2023-08-06T13:55:21;6.82;;;1.80;;
15526;SDS011;7865;50.918;4.510;2023-08-06T14:00:22;9.20;;;1.90;;
15526;SDS011;7865;50.918;4.510;2023-08-06T14:05:24;7.35;;;1.80;;
15526;SDS011;7865;50.918;4.510;2023-08-06T14:10:25;6.45;;;1.60;;
15526;SDS011;7865;50.918;4.510;2023-08-06T14:15:26;8.32;;;1.40;;
15526;SDS011;7865;50.918;4.510;2023-08-06T14:20:28;9.88;;;1.88;;
15526;SDS011;7865;50.918;4.510;2023-08-06T14:25:29;10.20;;;2.33;;
15526;SDS011;7865;50.918;4.510;2023-08-06T14:30:30;10.88;;;2.40;;
15526;SDS011;7865;50.918;4.510;2023-08-06T14:35:32;9.75;;;2.25;;
15526;SDS011;7865;50.918;4.510;2023-08-06T14:40:33;14.43;;;3.60;;
15526;SDS011;7865;50.918;4.510;2023-08-06T14:45:38;9.80;;;2.60;;
15526;SDS011;7865;50.918;4.510;2023-08-06T14:50:40;8.20;;;2.50;;
15526;SDS011;7865;50.918;4.510;2023-08-06T14:55:42;17.10;;;3.42;;
15526;SDS011;7865;50.918;4.510;2023-08-06T15:00:44;13.25;;;2.83;;
15526;SDS011;7865;50.918;4.510;2023-08-06T15:05:47;11.73;;;2.50;;
15526;SDS011;7865;50.918;4.510;2023-08-06T15:10:49;12.95;;;2.85;;
15526;SDS011;7865;50.918;4.510;2023-08-06T15:15:52;6.25;;;1.92;;
15526;SDS011;7865;50.918;4.510;2023-08-06T15:20:54;5.00;;;1.88;;
15526;SDS011;7865;50.918;4.510;2023-08-06T15:25:55;6.25;;;1.25;;
15526;SDS011;7865;50.918;4.510;2023-08-06T15:30:56;9.48;;;1.77;;
15526;SDS011;7865;50.918;4.510;2023-08-06T15:35:58;7.30;;;1.73;;
15526;SDS011;7865;50.918;4.510;2023-08-06T15:40:59;5.07;;;1.73;;
15526;SDS011;7865;50.918;4.510;2023-08-06T15:46:00;4.55;;;0.93;;
15526;SDS011;7865;50.918;4.510;2023-08-06T15:51:02;6.25;;;1.40;;
15526;SDS011;7865;50.918;4.510;2023-08-06T15:56:04;5.32;;;1.63;;
15526;SDS011;7865;50.918;4.510;2023-08-06T16:01:06;7.72;;;1.75;;
15526;SDS011;7865;50.918;4.510;2023-08-06T16:06:07;8.10;;;2.33;;
15526;SDS011;7865;50.918;4.510;2023-08-06T16:11:09;5.28;;;1.80;;
15526;SDS011;7865;50.918;4.510;2023-08-06T16:16:11;8.38;;;2.20;;
15526;SDS011;7865;50.918;4.510;2023-08-06T16:21:12;7.43;;;2.03;;
15526;SDS011;7865;50.918;4.510;2023-08-06T16:26:13;8.40;;;2.60;;
15526;SDS011;7865;50.918;4.510;2023-08-06T16:31:15;7.38;;;2.45;;
15526;SDS011;7865;50.918;4.510;2023-08-06T16:36:16;8.85;;;1.70;;
15526;SDS011;7865;50.918;4.510;2023-08-06T16:41:18;6.47;;;1.90;;
15526;SDS011;7865;50.918;4.510;2023-08-06T16:46:19;7.95;;;2.35;;
15526;SDS011;7865;50.918;4.510;2023-08-06T16:51:21;8.85;;;2.30;;
15526;SDS011;7865;50.918;4.510;2023-08-06T16:56:22;8.82;;;1.98;;
15526;SDS011;7865;50.918;4.510;2023-08-06T17:01:24;9.93;;;2.00;;
15526;SDS011;7865;50.918;4.510;2023-08-06T17:06:25;5.07;;;1.58;;
15526;SDS011;7865;50.918;4.510;2023-08-06T17:11:29;11.32;;;2.22;;
15526;SDS011;7865;50.918;4.510;2023-08-06T17:16:33;8.48;;;2.10;;
15526;SDS011;7865;50.918;4.510;2023-08-06T17:21:34;7.15;;;1.70;;
15526;SDS011;7865;50.918;4.510;2023-08-06T17:26:36;6.32;;;1.85;;
15526;SDS011;7865;50.918;4.510;2023-08-06T17:31:37;6.35;;;2.20;;
15526;SDS011;7865;50.918;4.510;2023-08-06T17:36:41;8.75;;;1.90;;
15526;SDS011;7865;50.918;4.510;2023-08-06T17:41:42;5.20;;;1.67;;
15526;SDS011;7865;50.918;4.510;2023-08-06T17:46:47;11.25;;;1.88;;
15526;SDS011;7865;50.918;4.510;2023-08-06T17:51:48;7.45;;;1.80;;
15526;SDS011;7865;50.918;4.510;2023-08-06T17:56:50;14.57;;;2.30;;
15526;SDS011;7865;50.918;4.510;2023-08-06T18:01:52;8.98;;;2.13;;
15526;SDS011;7865;50.918;4.510;2023-08-06T18:06:53;7.63;;;1.88;;
15526;SDS011;7865;50.918;4.510;2023-08-06T18:11:55;11.88;;;2.35;;
15526;SDS011;7865;50.918;4.510;2023-08-06T18:16:57;7.40;;;1.80;;
15526;SDS011;7865;50.918;4.510;2023-08-06T18:21:59;10.35;;;2.10;;
15526;SDS011;7865;50.918;4.510;2023-08-06T18:27:01;11.38;;;2.17;;
15526;SDS011;7865;50.918;4.510;2023-08-06T18:32:03;8.48;;;1.92;;
15526;SDS011;7865;50.918;4.510;2023-08-06T18:37:05;7.30;;;2.05;;
15526;SDS011;7865;50.918;4.510;2023-08-06T18:42:07;10.18;;;2.28;;
15526;SDS011;7865;50.918;4.510;2023-08-06T18:47:08;6.22;;;1.80;;
15526;SDS011;7865;50.918;4.510;2023-08-06T18:52:10;12.05;;;2.45;;
15526;SDS011;7865;50.918;4.510;2023-08-06T18:57:11;8.40;;;2.63;;
15526;SDS011;7865;50.918;4.510;2023-08-06T19:02:13;10.68;;;2.42;;
15526;SDS011;7865;50.918;4.510;2023-08-06T19:07:14;8.98;;;2.70;;
15526;SDS011;7865;50.918;4.510;2023-08-06T19:12:16;7.97;;;2.25;;
15526;SDS011;7865;50.918;4.510;2023-08-06T19:17:21;11.93;;;2.50;;
15526;SDS011;7865;50.918;4.510;2023-08-06T19:22:23;12.75;;;2.92;;
15526;SDS011;7865;50.918;4.510;2023-08-06T19:27:24;10.57;;;3.45;;
15526;SDS011;7865;50.918;4.510;2023-08-06T19:32:26;17.40;;;3.00;;
15526;SDS011;7865;50.918;4.510;2023-08-06T19:37:28;8.90;;;2.33;;
15526;SDS011;7865;50.918;4.510;2023-08-06T19:42:29;15.70;;;3.10;;
15526;SDS011;7865;50.918;4.510;2023-08-06T19:47:31;12.47;;;2.50;;
15526;SDS011;7865;50.918;4.510;2023-08-06T19:52:33;9.07;;;2.40;;
15526;SDS011;7865;50.918;4.510;2023-08-06T19:57:34;8.67;;;2.53;;
15526;SDS011;7865;50.918;4.510;2023-08-06T20:02:36;13.17;;;2.80;;
15526;SDS011;7865;50.918;4.510;2023-08-06T20:07:37;9.13;;;2.40;;
15526;SDS011;7865;50.918;4.510;2023-08-06T20:12:39;15.10;;;2.67;;
15526;SDS011;7865;50.918;4.510;2023-08-06T20:17:40;10.57;;;2.17;;
15526;SDS011;7865;50.918;4.510;2023-08-06T20:22:42;8.23;;;2.20;;
15526;SDS011;7865;50.918;4.510;2023-08-06T20:27:43;11.17;;;2.90;;
15526;SDS011;7865;50.918;4.510;2023-08-06T20:32:45;14.53;;;2.90;;
15526;SDS011;7865;50.918;4.510;2023-08-06T20:37:47;6.73;;;2.50;;
15526;SDS011;7865;50.918;4.510;2023-08-06T20:42:49;14.10;;;3.27;;
15526;SDS011;7865;50.918;4.510;2023-08-06T20:47:50;10.40;;;3.70;;
15526;SDS011;7865;50.918;4.510;2023-08-06T20:52:52;9.13;;;3.43;;
15526;SDS011;7865;50.918;4.510;2023-08-06T20:57:54;13.87;;;4.00;;
15526;SDS011;7865;50.918;4.510;2023-08-06T21:02:55;12.33;;;3.20;;
15526;SDS011;7865;50.918;4.510;2023-08-06T21:07:57;7.00;;;3.17;;
15526;SDS011;7865;50.918;4.510;2023-08-06T21:12:58;15.67;;;3.33;;
15526;SDS011;7865;50.918;4.510;2023-08-06T21:18:00;15.57;;;3.23;;
15526;SDS011;7865;50.918;4.510;2023-08-06T21:23:01;9.13;;;2.90;;
15526;SDS011;7865;50.918;4.510;2023-08-06T21:28:03;13.33;;;2.97;;
15526;SDS011;7865;50.918;4.510;2023-08-06T21:33:04;10.13;;;2.90;;
15526;SDS011;7865;50.918;4.510;2023-08-06T21:38:06;11.00;;;3.40;;
15526;SDS011;7865;50.918;4.510;2023-08-06T21:43:07;14.03;;;3.77;;
15526;SDS011;7865;50.918;4.510;2023-08-06T21:48:08;16.67;;;3.20;;
15526;SDS011;7865;50.918;4.510;2023-08-06T21:53:10;13.33;;;3.20;;
15526;SDS011;7865;50.918;4.510;2023-08-06T21:58:11;11.87;;;4.13;;
15526;SDS011;7865;50.918;4.510;2023-08-06T22:03:12;9.77;;;3.17;;
15526;SDS011;7865;50.918;4.510;2023-08-06T22:08:15;9.70;;;3.20;;
15526;SDS011;7865;50.918;4.510;2023-08-06T22:13:17;16.03;;;3.30;;
15526;SDS011;7865;50.918;4.510;2023-08-06T22:18:18;11.90;;;3.27;;
15526;SDS011;7865;50.918;4.510;2023-08-06T22:23:20;13.10;;;3.50;;
15526;SDS011;7865;50.918;4.510;2023-08-06T22:28:22;9.33;;;3.00;;
15526;SDS011;7865;50.918;4.510;2023-08-06T22:33:24;12.23;;;2.80;;
15526;SDS011;7865;50.918;4.510;2023-08-06T22:38:30;13.33;;;3.80;;
15526;SDS011;7865;50.918;4.510;2023-08-06T22:43:32;12.17;;;3.60;;
15526;SDS011;7865;50.918;4.510;2023-08-06T22:48:33;14.40;;;3.30;;
15526;SDS011;7865;50.918;4.510;2023-08-06T22:53:34;8.63;;;3.40;;
15526;SDS011;7865;50.918;4.510;2023-08-06T22:58:36;8.30;;;3.03;;
15526;SDS011;7865;50.918;4.510;2023-08-06T23:03:38;12.63;;;3.00;;
15526;SDS011;7865;50.918;4.510;2023-08-06T23:08:40;10.60;;;3.33;;
15526;SDS011;7865;50.918;4.510;2023-08-06T23:13:41;7.63;;;3.30;;
15526;SDS011;7865;50.918;4.510;2023-08-06T23:18:43;9.93;;;2.83;;
15526;SDS011;7865;50.918;4.510;2023-08-06T23:23:44;6.73;;;3.03;;
15526;SDS011;7865;50.918;4.510;2023-08-06T23:28:46;17.23;;;3.70;;
15526;SDS011;7865;50.918;4.510;2023-08-06T23:33:49;11.60;;;3.10;;
15526;SDS011;7865;50.918;4.510;2023-08-06T23:38:51;14.07;;;3.10;;
15526;SDS011;7865;50.918;4.510;2023-08-06T23:43:55;14.37;;;3.80;;
15526;SDS011;7865;50.918;4.510;2023-08-06T23:48:57;10.00;;;3.07;;
15526;SDS011;7865;50.918;4.510;2023-08-06T23:53:58;10.07;;;3.33;;
15526;SDS011;7865;50.918;4.510;2023-08-06T23:58:59;9.47;;;3.23;;
